createdAt,value
2018-09-15T00:00:01.246Z,14.8
2018-09-15T00:05:01.724Z,14.9
2018-09-15T00:10:01.949Z,14.9
2018-09-15T00:15:02.446Z,14.9
2018-09-15T00:20:02.077Z,14.9
2018-09-15T00:25:01.733Z,15
2018-09-15T00:30:02.373Z,15
2018-09-15T00:35:01.541Z,15
2018-09-15T00:40:01.319Z,15.1
2018-09-15T00:45:01.244Z,15.2
2018-09-15T00:50:01.874Z,15.3
2018-09-15T00:55:01.608Z,15.3
2018-09-15T01:00:01.612Z,15.3
2018-09-15T01:05:02.487Z,15.2
2018-09-15T01:10:01.161Z,15.1
2018-09-15T01:15:02.095Z,15
2018-09-15T01:20:01.428Z,15
2018-09-15T01:25:01.580Z,14.9
2018-09-15T01:30:01.660Z,14.9
2018-09-15T01:35:01.520Z,14.9
2018-09-15T01:40:01.480Z,14.8
2018-09-15T01:45:01.409Z,14.8
2018-09-15T01:50:01.590Z,14.7
2018-09-15T01:55:01.510Z,14.7
2018-09-15T02:00:01.392Z,14.6
2018-09-15T02:05:01.256Z,14.5
2018-09-15T02:10:02.194Z,14.4
2018-09-15T02:15:01.742Z,14.4
2018-09-15T02:20:01.398Z,14.3
2018-09-15T02:25:01.217Z,14.3
2018-09-15T02:30:02.015Z,14.2
2018-09-15T02:35:02.067Z,14.2
2018-09-15T02:40:01.604Z,14.2
2018-09-15T02:45:01.685Z,14.2
2018-09-15T02:50:01.939Z,14.2
2018-09-15T02:55:01.317Z,14.2
2018-09-15T03:00:01.825Z,14.2
2018-09-15T03:05:01.196Z,14.3
2018-09-15T03:10:01.881Z,14.2
2018-09-15T03:15:01.638Z,14.3
2018-09-15T03:20:01.713Z,14.2
2018-09-15T03:25:02.097Z,14.3
2018-09-15T03:30:01.565Z,14.3
2018-09-15T03:35:01.775Z,14.3
2018-09-15T03:40:01.629Z,14.2
2018-09-15T03:45:01.519Z,14.2
2018-09-15T03:50:02.240Z,14.2
2018-09-15T03:55:02.069Z,14.2
2018-09-15T04:00:01.549Z,14.2
2018-09-15T04:05:01.884Z,14.2
2018-09-15T04:10:01.684Z,14.1
2018-09-15T04:15:02.140Z,14.1
2018-09-15T04:20:01.551Z,14.1
2018-09-15T04:25:01.446Z,14
2018-09-15T04:30:01.402Z,14
2018-09-15T04:35:01.986Z,13.9
2018-09-15T04:40:02.969Z,13.8
2018-09-15T04:45:01.528Z,13.7
2018-09-15T04:50:01.835Z,13.6
2018-09-15T04:55:01.403Z,13.6
2018-09-15T05:00:01.279Z,13.5
2018-09-15T05:05:02.016Z,13.5
2018-09-15T05:10:01.469Z,13.6
2018-09-15T05:15:02.215Z,13.6
2018-09-15T05:20:01.560Z,13.6
2018-09-15T05:25:01.734Z,13.7
2018-09-15T05:30:02.408Z,13.7
2018-09-15T05:35:01.413Z,13.8
2018-09-15T05:40:01.679Z,13.9
2018-09-15T05:45:01.169Z,13.8
2018-09-15T05:50:01.844Z,13.9
2018-09-15T05:55:01.325Z,13.9
2018-09-15T06:00:01.638Z,13.9
2018-09-15T06:05:02.457Z,14
2018-09-15T06:10:01.794Z,14
2018-09-15T06:15:01.449Z,14.1
2018-09-15T06:20:01.869Z,14.2
2018-09-15T06:25:02.144Z,14.3
2018-09-15T06:30:01.356Z,14.4
2018-09-15T06:35:01.628Z,14.4
2018-09-15T06:40:01.452Z,14.4
2018-09-15T06:45:02.163Z,14.2
2018-09-15T06:50:01.158Z,14.1
2018-09-15T06:55:01.722Z,14.1
2018-09-15T07:00:01.368Z,14.1
2018-09-15T07:05:01.699Z,14.1
2018-09-15T07:10:01.213Z,14.2
2018-09-15T07:15:01.782Z,14.4
2018-09-15T07:20:02.068Z,14.6
2018-09-15T07:25:01.807Z,14.8
2018-09-15T07:30:01.159Z,14.9
2018-09-15T07:35:02.560Z,14.9
2018-09-15T07:40:01.172Z,14.9
2018-09-15T07:45:01.569Z,15.5
2018-09-15T07:50:02.042Z,15.7
2018-09-15T07:55:02.253Z,16.1
2018-09-15T08:00:01.297Z,16.5
2018-09-15T08:05:01.669Z,16.4
2018-09-15T08:10:01.690Z,16.4
2018-09-15T08:15:02.529Z,16.3
2018-09-15T08:20:01.384Z,16.2
2018-09-15T08:25:01.387Z,16.1
2018-09-15T08:30:01.590Z,16
2018-09-15T08:35:01.328Z,16
2018-09-15T08:40:01.385Z,15.9
2018-09-15T08:45:01.605Z,15.8
2018-09-15T08:50:01.639Z,15.8
2018-09-15T08:55:02.120Z,15.7
2018-09-15T09:00:01.506Z,15.6
2018-09-15T09:05:01.384Z,15.6
2018-09-15T09:10:01.626Z,15.7
2018-09-15T09:15:02.132Z,15.6
2018-09-15T09:20:01.529Z,15.6
2018-09-15T09:25:01.708Z,15.8
2018-09-15T09:30:01.839Z,15.8
2018-09-15T09:35:01.714Z,16
2018-09-15T09:40:02.214Z,16.3
2018-09-15T09:45:01.114Z,16.3
2018-09-15T09:50:01.796Z,16.2
2018-09-15T09:55:01.386Z,16.3
2018-09-15T10:00:02.135Z,16.4
2018-09-15T10:05:01.176Z,16.3
2018-09-15T10:10:02.148Z,16.3
2018-09-15T10:15:01.444Z,16.3
2018-09-15T10:20:01.556Z,16.3
2018-09-15T10:25:01.213Z,16.2
2018-09-15T10:30:01.570Z,16.2
2018-09-15T10:35:01.929Z,16.3
2018-09-15T10:40:01.821Z,16.4
2018-09-15T10:45:01.943Z,16.3
2018-09-15T10:50:02.142Z,16.4
2018-09-15T10:55:01.572Z,16.5
2018-09-15T11:00:01.993Z,16.7
2018-09-15T11:05:01.669Z,17
2018-09-15T11:10:01.835Z,17.2
2018-09-15T11:15:01.529Z,17.3
2018-09-15T11:20:01.302Z,17.5
2018-09-15T11:25:01.342Z,18.1
2018-09-15T11:30:01.564Z,18.2
2018-09-15T11:35:01.972Z,18
2018-09-15T11:40:01.890Z,18.2
2018-09-15T11:45:01.706Z,18.3
2018-09-15T11:50:01.696Z,17.8
2018-09-15T11:55:01.954Z,17.6
2018-09-15T12:00:02.095Z,17.5
2018-09-15T12:05:01.800Z,17.1
2018-09-15T12:10:01.832Z,16.9
2018-09-15T12:15:01.328Z,16.7
2018-09-15T12:20:01.181Z,16.5
2018-09-15T12:25:02.021Z,16.4
2018-09-15T12:30:01.233Z,16.1
2018-09-15T12:35:02.119Z,16
2018-09-15T12:40:01.897Z,16
2018-09-15T12:45:01.957Z,16
2018-09-15T12:50:02.026Z,15.9
2018-09-15T12:55:01.603Z,16.1
2018-09-15T13:00:01.916Z,16.6
2018-09-15T13:05:01.735Z,17.5
2018-09-15T13:10:01.616Z,17.8
2018-09-15T13:15:01.751Z,17.9
2018-09-15T13:20:01.409Z,17.9
2018-09-15T13:25:01.738Z,17.9
2018-09-15T13:30:02.199Z,18
2018-09-15T13:35:02.014Z,17.8
2018-09-15T13:40:01.818Z,17.7
2018-09-15T13:45:01.510Z,17.6
2018-09-15T13:50:01.701Z,17.6
2018-09-15T13:55:01.736Z,17.5
2018-09-15T14:00:01.967Z,17.3
2018-09-15T14:05:01.728Z,17.1
2018-09-15T14:10:07.044Z,17
2018-09-15T14:15:01.894Z,17
2018-09-15T14:20:02.311Z,17.2
2018-09-15T14:25:01.340Z,17.3
2018-09-15T14:30:01.565Z,17.3
2018-09-15T14:35:01.605Z,17.3
2018-09-15T14:40:01.944Z,17.5
2018-09-15T14:45:01.522Z,17.4
2018-09-15T14:50:01.991Z,17.5
2018-09-15T14:55:01.416Z,17.6
2018-09-15T15:00:01.569Z,17.7
2018-09-15T15:05:01.409Z,17.7
2018-09-15T15:10:02.262Z,18.1
2018-09-15T15:15:01.610Z,18.3
2018-09-15T15:20:01.850Z,18.4
2018-09-15T15:25:01.879Z,18.4
2018-09-15T15:30:01.758Z,18.1
2018-09-15T15:35:01.512Z,17.5
2018-09-15T15:40:01.322Z,16.7
2018-09-15T15:45:02.358Z,16
2018-09-15T15:50:01.332Z,15.6
2018-09-15T15:55:01.697Z,15.5
2018-09-15T16:00:02.551Z,15.4
2018-09-15T16:05:01.748Z,15.4
2018-09-15T16:10:01.407Z,15.4
2018-09-15T16:15:01.259Z,15.4
2018-09-15T16:20:02.119Z,15.3
2018-09-15T16:25:01.943Z,15.3
2018-09-15T16:30:01.206Z,15.1
2018-09-15T16:35:02.356Z,15.1
2018-09-15T16:40:01.910Z,15.1
2018-09-15T16:45:02.119Z,15
2018-09-15T16:50:01.347Z,14.9
2018-09-15T16:55:01.709Z,15
2018-09-15T17:00:01.829Z,14.9
2018-09-15T17:05:01.264Z,15
2018-09-15T17:10:01.618Z,15
2018-09-15T17:15:01.711Z,15
2018-09-15T17:20:01.373Z,14.9
2018-09-15T17:25:01.669Z,14.9
2018-09-15T17:30:01.855Z,14.8
2018-09-15T17:35:01.321Z,14.8
2018-09-15T17:40:02.334Z,14.8
2018-09-15T17:45:01.805Z,14.7
2018-09-15T17:50:01.865Z,14.7
2018-09-15T17:55:02.289Z,14.7
2018-09-15T18:00:01.595Z,14.6
2018-09-15T18:05:01.958Z,14.6
2018-09-15T18:10:01.968Z,14.5
2018-09-15T18:15:02.521Z,14.4
2018-09-15T18:20:01.122Z,14.4
2018-09-15T18:25:01.219Z,14.3
2018-09-15T18:30:01.408Z,14.2
2018-09-15T18:35:02.154Z,14.2
2018-09-15T18:40:01.958Z,14.2
2018-09-15T18:45:02.157Z,14.2
2018-09-15T18:50:02.052Z,14.2
2018-09-15T18:55:01.782Z,14.2
2018-09-15T19:00:01.925Z,14
2018-09-15T19:05:01.965Z,13.9
2018-09-15T19:10:02.044Z,13.8
2018-09-15T19:15:01.537Z,13.8
2018-09-15T19:20:02.130Z,13.7
2018-09-15T19:25:01.990Z,13.7
2018-09-15T19:30:01.517Z,13.7
2018-09-15T19:35:01.369Z,13.7
2018-09-15T19:40:01.389Z,13.7
2018-09-15T19:45:01.744Z,13.7
2018-09-15T19:50:01.445Z,13.6
2018-09-15T19:55:01.313Z,13.5
2018-09-15T20:00:01.883Z,13.4
2018-09-15T20:05:01.208Z,13.3
2018-09-15T20:10:01.246Z,13.3
2018-09-15T20:15:01.581Z,13.3
2018-09-15T20:20:01.412Z,13.3
2018-09-15T20:25:02.085Z,13.2
2018-09-15T20:30:01.473Z,13.2
2018-09-15T20:35:01.782Z,13.1
2018-09-15T20:40:01.600Z,13.1
2018-09-15T20:45:01.214Z,13.1
2018-09-15T20:50:01.496Z,13.1
2018-09-15T20:55:01.352Z,13.1
2018-09-15T21:00:01.804Z,13.1
2018-09-15T21:05:01.594Z,13.1
2018-09-15T21:10:01.226Z,13.1
2018-09-15T21:15:01.612Z,13
2018-09-15T21:20:02.152Z,13
2018-09-15T21:25:01.771Z,13
2018-09-15T21:30:01.225Z,12.9
2018-09-15T21:35:02.631Z,12.8
2018-09-15T21:40:01.407Z,12.6
2018-09-15T21:45:01.303Z,12.5
2018-09-15T21:50:02.002Z,12.4
2018-09-15T21:55:02.152Z,12.4
2018-09-15T22:00:01.639Z,12.3
2018-09-15T22:05:02.081Z,12.3
2018-09-15T22:10:01.551Z,12.3
2018-09-15T22:15:02.173Z,12.2
2018-09-15T22:20:02.117Z,12.1
2018-09-15T22:25:01.772Z,12.1
2018-09-15T22:30:01.538Z,12.1
2018-09-15T22:35:01.922Z,12
2018-09-15T22:40:01.793Z,12
2018-09-15T22:45:01.256Z,12
2018-09-15T22:50:02.333Z,12
2018-09-15T22:55:01.758Z,12
2018-09-15T23:00:01.641Z,11.9
2018-09-15T23:05:02.046Z,11.9
2018-09-15T23:10:02.331Z,11.9
2018-09-15T23:15:02.142Z,11.9
2018-09-15T23:20:01.277Z,11.8
2018-09-15T23:25:01.793Z,11.7
2018-09-15T23:30:01.806Z,11.7
2018-09-15T23:35:01.415Z,11.7
2018-09-15T23:40:01.701Z,11.7
2018-09-15T23:45:02.352Z,11.7
2018-09-15T23:50:02.276Z,11.7
2018-09-15T23:55:02.076Z,11.7
